sensor_id;sensor_type;location;lat;lon;timestamp;pressure;altitude;pressure_sealevel;temperature
45976;BMP280;31696;42.668;23.322;2023-04-12T00:01:24;93787.50;;;11.03
45976;BMP280;31696;42.668;23.322;2023-04-12T00:03:25;93788.59;;;11.00
45976;BMP280;31696;42.668;23.322;2023-04-12T00:05:25;93774.38;;;10.92
45976;BMP280;31696;42.668;23.322;2023-04-12T00:07:26;93731.59;;;10.74
45976;BMP280;31696;42.668;23.322;2023-04-12T00:09:27;93777.38;;;11.07
45976;BMP280;31696;42.668;23.322;2023-04-12T00:11:29;93769.59;;;11.07
45976;BMP280;31696;42.668;23.322;2023-04-12T00:13:30;93767.53;;;11.16
45976;BMP280;31696;42.668;23.322;2023-04-12T00:15:31;93766.97;;;11.27
45976;BMP280;31696;42.668;23.322;2023-04-12T00:17:31;93768.09;;;11.04
45976;BMP280;31696;42.668;23.322;2023-04-12T00:19:31;93769.44;;;10.67
45976;BMP280;31696;42.668;23.322;2023-04-12T00:21:32;93759.06;;;10.86
45976;BMP280;31696;42.668;23.322;2023-04-12T00:23:32;93762.63;;;11.00
45976;BMP280;31696;42.668;23.322;2023-04-12T00:25:32;93759.19;;;10.88
45976;BMP280;31696;42.668;23.322;2023-04-12T00:27:33;93755.50;;;10.72
45976;BMP280;31696;42.668;23.322;2023-04-12T00:29:33;93759.06;;;11.05
45976;BMP280;31696;42.668;23.322;2023-04-12T00:31:34;93755.38;;;10.89
45976;BMP280;31696;42.668;23.322;2023-04-12T00:33:36;93752.50;;;11.14
45976;BMP280;31696;42.668;23.322;2023-04-12T00:35:36;93749.09;;;11.02
45976;BMP280;31696;42.668;23.322;2023-04-12T00:37:37;93759.34;;;10.90
45976;BMP280;31696;42.668;23.322;2023-04-12T00:39:37;93755.25;;;10.87
45976;BMP280;31696;42.668;23.322;2023-04-12T00:41:37;93750.59;;;11.15
45976;BMP280;31696;42.668;23.322;2023-04-12T00:43:39;93762.34;;;11.16
45976;BMP280;31696;42.668;23.322;2023-04-12T00:45:40;93755.22;;;10.97
45976;BMP280;31696;42.668;23.322;2023-04-12T00:47:43;93754.69;;;11.18
45976;BMP280;31696;42.668;23.322;2023-04-12T00:49:43;93755.06;;;11.33
45976;BMP280;31696;42.668;23.322;2023-04-12T00:51:44;93751.00;;;11.01
45976;BMP280;31696;42.668;23.322;2023-04-12T00:53:45;93746.22;;;10.98
45976;BMP280;31696;42.668;23.322;2023-04-12T00:55:45;93753.31;;;11.07
45976;BMP280;31696;42.668;23.322;2023-04-12T00:57:45;93748.41;;;11.01
45976;BMP280;31696;42.668;23.322;2023-04-12T00:59:46;93745.94;;;11.03
45976;BMP280;31696;42.668;23.322;2023-04-12T01:01:47;93744.72;;;10.95
45976;BMP280;31696;42.668;23.322;2023-04-12T01:03:48;93748.81;;;10.79
45976;BMP280;31696;42.668;23.322;2023-04-12T01:08:23;93756.59;;;10.69
45976;BMP280;31696;42.668;23.322;2023-04-12T01:11:08;93740.72;;;11.03
45976;BMP280;31696;42.668;23.322;2023-04-12T01:13:07;93743.47;;;11.05
45976;BMP280;31696;42.668;23.322;2023-04-12T01:15:12;93745.94;;;10.75
45976;BMP280;31696;42.668;23.322;2023-04-12T01:17:15;93742.38;;;10.89
45976;BMP280;31696;42.668;23.322;2023-04-12T01:19:28;93748.81;;;10.69
45976;BMP280;31696;42.668;23.322;2023-04-12T01:22:05;93734.34;;;10.85
45976;BMP280;31696;42.668;23.322;2023-04-12T01:26:32;93729.69;;;11.03
45976;BMP280;31696;42.668;23.322;2023-04-12T01:28:37;93727.78;;;10.84
45976;BMP280;31696;42.668;23.322;2023-04-12T01:30:37;93724.63;;;10.76
45976;BMP280;31696;42.668;23.322;2023-04-12T01:32:38;93731.03;;;11.04
45976;BMP280;31696;42.668;23.322;2023-04-12T01:34:39;93725.44;;;10.88
45976;BMP280;31696;42.668;23.322;2023-04-12T01:36:40;93730.63;;;10.88
45976;BMP280;31696;42.668;23.322;2023-04-12T01:38:43;93732.41;;;10.76
45976;BMP280;31696;42.668;23.322;2023-04-12T01:40:45;93729.69;;;10.84
45976;BMP280;31696;42.668;23.322;2023-04-12T01:42:47;93734.41;;;10.30
45976;BMP280;31696;42.668;23.322;2023-04-12T01:44:48;93741.28;;;10.73
45976;BMP280;31696;42.668;23.322;2023-04-12T01:46:48;93736.09;;;10.54
45976;BMP280;31696;42.668;23.322;2023-04-12T01:48:51;93732.28;;;10.65
45976;BMP280;31696;42.668;23.322;2023-04-12T01:51:04;93740.84;;;10.48
45976;BMP280;31696;42.668;23.322;2023-04-12T01:53:10;93738.97;;;10.87
45976;BMP280;31696;42.668;23.322;2023-04-12T01:55:13;93729.44;;;10.80
45976;BMP280;31696;42.668;23.322;2023-04-12T01:57:13;93741.81;;;10.43
45976;BMP280;31696;42.668;23.322;2023-04-12T01:59:14;93743.19;;;10.44
45976;BMP280;31696;42.668;23.322;2023-04-12T02:01:16;93731.59;;;10.83
45976;BMP280;31696;42.668;23.322;2023-04-12T02:03:18;93735.81;;;10.88
45976;BMP280;31696;42.668;23.322;2023-04-12T02:05:19;93723.28;;;10.75
45976;BMP280;31696;42.668;23.322;2023-04-12T02:07:20;93726.94;;;10.63
45976;BMP280;31696;42.668;23.322;2023-04-12T02:09:20;93732.03;;;10.70
45976;BMP280;31696;42.668;23.322;2023-04-12T02:11:21;93724.09;;;10.78
45976;BMP280;31696;42.668;23.322;2023-04-12T02:13:22;93722.69;;;10.67
45976;BMP280;31696;42.668;23.322;2023-04-12T02:15:22;93723.22;;;10.56
45976;BMP280;31696;42.668;23.322;2023-04-12T02:17:23;93731.47;;;10.62
45976;BMP280;31696;42.668;23.322;2023-04-12T02:19:23;93726.69;;;10.68
45976;BMP280;31696;42.668;23.322;2023-04-12T02:21:25;93725.47;;;10.69
45976;BMP280;31696;42.668;23.322;2023-04-12T02:23:28;93724.34;;;10.63
45976;BMP280;31696;42.668;23.322;2023-04-12T02:25:28;93723.66;;;10.81
45976;BMP280;31696;42.668;23.322;2023-04-12T02:27:30;93727.09;;;10.74
45976;BMP280;31696;42.668;23.322;2023-04-12T02:29:30;93731.75;;;10.85
45976;BMP280;31696;42.668;23.322;2023-04-12T02:31:31;93726.41;;;10.74
45976;BMP280;31696;42.668;23.322;2023-04-12T02:33:31;93725.88;;;10.85
45976;BMP280;31696;42.668;23.322;2023-04-12T02:35:34;93725.84;;;10.66
45976;BMP280;31696;42.668;23.322;2023-04-12T02:37:42;93729.44;;;10.80
45976;BMP280;31696;42.668;23.322;2023-04-12T02:39:42;93721.34;;;10.47
45976;BMP280;31696;42.668;23.322;2023-04-12T02:41:44;93715.88;;;10.52
45976;BMP280;31696;42.668;23.322;2023-04-12T02:43:46;93726.16;;;10.70
45976;BMP280;31696;42.668;23.322;2023-04-12T02:45:46;93711.34;;;10.72
45976;BMP280;31696;42.668;23.322;2023-04-12T02:47:47;93720.53;;;10.73
45976;BMP280;31696;42.668;23.322;2023-04-12T02:49:49;93710.25;;;10.56
45976;BMP280;31696;42.668;23.322;2023-04-12T02:51:51;93708.06;;;10.72
45976;BMP280;31696;42.668;23.322;2023-04-12T02:53:56;93717.34;;;10.55
45976;BMP280;31696;42.668;23.322;2023-04-12T02:56:00;93711.78;;;10.69
45976;BMP280;31696;42.668;23.322;2023-04-12T02:58:03;93705.06;;;10.66
45976;BMP280;31696;42.668;23.322;2023-04-12T03:00:05;93710.13;;;10.73
45976;BMP280;31696;42.668;23.322;2023-04-12T03:02:15;93707.81;;;10.68
45976;BMP280;31696;42.668;23.322;2023-04-12T03:04:15;93706.72;;;10.61
45976;BMP280;31696;42.668;23.322;2023-04-12T03:06:22;93711.84;;;10.23
45976;BMP280;31696;42.668;23.322;2023-04-12T03:08:22;93704.28;;;10.63
45976;BMP280;31696;42.668;23.322;2023-04-12T03:10:29;93642.50;;;10.23
45976;BMP280;31696;42.668;23.322;2023-04-12T03:12:35;93697.28;;;10.56
45976;BMP280;31696;42.668;23.322;2023-04-12T03:14:46;93707.53;;;10.73
45976;BMP280;31696;42.668;23.322;2023-04-12T03:16:47;93710.56;;;10.60
45976;BMP280;31696;42.668;23.322;2023-04-12T03:18:51;93709.88;;;10.69
45976;BMP280;31696;42.668;23.322;2023-04-12T03:20:55;93716.69;;;10.84
45976;BMP280;31696;42.668;23.322;2023-04-12T03:22:55;93718.06;;;10.85
45976;BMP280;31696;42.668;23.322;2023-04-12T03:24:56;93716.16;;;10.85
45976;BMP280;31696;42.668;23.322;2023-04-12T03:26:56;93713.84;;;10.80
45976;BMP280;31696;42.668;23.322;2023-04-12T03:29:00;93714.50;;;10.71
45976;BMP280;31696;42.668;23.322;2023-04-12T03:31:04;93715.31;;;10.73
45976;BMP280;31696;42.668;23.322;2023-04-12T03:33:12;93710.16;;;10.54
45976;BMP280;31696;42.668;23.322;2023-04-12T03:35:13;93713.56;;;10.85
45976;BMP280;31696;42.668;23.322;2023-04-12T03:37:15;93710.94;;;11.04
45976;BMP280;31696;42.668;23.322;2023-04-12T03:39:16;93715.06;;;10.79
45976;BMP280;31696;42.668;23.322;2023-04-12T03:41:20;93717.09;;;10.80
45976;BMP280;31696;42.668;23.322;2023-04-12T03:43:20;93709.47;;;10.53
45976;BMP280;31696;42.668;23.322;2023-04-12T03:45:21;93722.06;;;10.86
45976;BMP280;31696;42.668;23.322;2023-04-12T03:47:25;93713.69;;;10.87
45976;BMP280;31696;42.668;23.322;2023-04-12T03:49:26;93719.97;;;10.65
45976;BMP280;31696;42.668;23.322;2023-04-12T03:51:26;93730.78;;;10.62
45976;BMP280;31696;42.668;23.322;2023-04-12T03:53:33;93669.31;;;10.45
45976;BMP280;31696;42.668;23.322;2023-04-12T03:55:34;93721.91;;;10.93
45976;BMP280;31696;42.668;23.322;2023-04-12T03:57:37;93724.63;;;10.76
45976;BMP280;31696;42.668;23.322;2023-04-12T03:59:39;93732.81;;;11.01
45976;BMP280;31696;42.668;23.322;2023-04-12T04:01:40;93730.22;;;11.01
45976;BMP280;31696;42.668;23.322;2023-04-12T04:03:41;93721.22;;;10.83
45976;BMP280;31696;42.668;23.322;2023-04-12T04:05:52;93734.06;;;11.00
45976;BMP280;31696;42.668;23.322;2023-04-12T04:07:54;93731.72;;;10.66
45976;BMP280;31696;42.668;23.322;2023-04-12T04:09:56;93736.09;;;10.73
45976;BMP280;31696;42.668;23.322;2023-04-12T04:11:59;93737.06;;;10.87
45976;BMP280;31696;42.668;23.322;2023-04-12T04:14:01;93735.28;;;10.80
45976;BMP280;31696;42.668;23.322;2023-04-12T04:16:02;93734.03;;;10.81
45976;BMP280;31696;42.668;23.322;2023-04-12T04:18:03;93740.59;;;10.82
45976;BMP280;31696;42.668;23.322;2023-04-12T04:20:04;93759.22;;;10.79
45976;BMP280;31696;42.668;23.322;2023-04-12T04:22:09;93757.28;;;11.08
45976;BMP280;31696;42.668;23.322;2023-04-12T04:24:11;93764.19;;;10.29
45976;BMP280;31696;42.668;23.322;2023-04-12T04:26:18;93762.22;;;10.94
45976;BMP280;31696;42.668;23.322;2023-04-12T04:28:27;93758.78;;;11.01
45976;BMP280;31696;42.668;23.322;2023-04-12T04:30:28;93774.44;;;10.55
45976;BMP280;31696;42.668;23.322;2023-04-12T04:32:29;93769.19;;;10.92
45976;BMP280;31696;42.668;23.322;2023-04-12T04:34:30;93775.31;;;10.77
45976;BMP280;31696;42.668;23.322;2023-04-12T04:36:41;93780.22;;;10.73
45976;BMP280;31696;42.668;23.322;2023-04-12T04:38:43;93775.63;;;11.00
45976;BMP280;31696;42.668;23.322;2023-04-12T04:40:54;93775.75;;;11.02
45976;BMP280;31696;42.668;23.322;2023-04-12T04:43:01;93777.28;;;10.31
45976;BMP280;31696;42.668;23.322;2023-04-12T04:45:05;93777.91;;;10.58
45976;BMP280;31696;42.668;23.322;2023-04-12T04:47:14;93782.84;;;10.73
45976;BMP280;31696;42.668;23.322;2023-04-12T04:49:14;93727.06;;;9.99
45976;BMP280;31696;42.668;23.322;2023-04-12T04:51:15;93780.41;;;10.75
45976;BMP280;31696;42.668;23.322;2023-04-12T04:53:16;93792.53;;;10.53
45976;BMP280;31696;42.668;23.322;2023-04-12T04:55:18;93782.84;;;10.73
45976;BMP280;31696;42.668;23.322;2023-04-12T04:57:19;93793.66;;;10.89
45976;BMP280;31696;42.668;23.322;2023-04-12T04:59:20;93785.84;;;10.60
45976;BMP280;31696;42.668;23.322;2023-04-12T05:01:21;93796.16;;;10.41
45976;BMP280;31696;42.668;23.322;2023-04-12T05:03:25;93790.09;;;10.94
45976;BMP280;31696;42.668;23.322;2023-04-12T05:05:29;93799.28;;;10.85
45976;BMP280;31696;42.668;23.322;2023-04-12T05:07:40;93792.13;;;10.76
45976;BMP280;31696;42.668;23.322;2023-04-12T05:09:42;93802.66;;;10.88
45976;BMP280;31696;42.668;23.322;2023-04-12T05:11:43;93807.19;;;11.26
45976;BMP280;31696;42.668;23.322;2023-04-12T05:13:45;93807.06;;;10.95
45976;BMP280;31696;42.668;23.322;2023-04-12T05:15:45;93807.19;;;10.78
45976;BMP280;31696;42.668;23.322;2023-04-12T05:17:46;93812.09;;;10.83
45976;BMP280;31696;42.668;23.322;2023-04-12T05:19:46;93817.56;;;11.06
45976;BMP280;31696;42.668;23.322;2023-04-12T05:21:47;93814.31;;;11.06
45976;BMP280;31696;42.668;23.322;2023-04-12T05:23:47;93818.50;;;10.82
45976;BMP280;31696;42.668;23.322;2023-04-12T05:25:47;93810.22;;;11.32
45976;BMP280;31696;42.668;23.322;2023-04-12T05:27:50;93821.53;;;11.07
45976;BMP280;31696;42.668;23.322;2023-04-12T05:29:51;93820.47;;;11.11
45976;BMP280;31696;42.668;23.322;2023-04-12T05:31:52;93825.66;;;11.11
45976;BMP280;31696;42.668;23.322;2023-04-12T05:33:56;93817.72;;;11.08
45976;BMP280;31696;42.668;23.322;2023-04-12T05:36:01;93814.97;;;10.97
45976;BMP280;31696;42.668;23.322;2023-04-12T05:38:03;93813.09;;;10.42
45976;BMP280;31696;42.668;23.322;2023-04-12T05:40:03;93817.72;;;10.99
45976;BMP280;31696;42.668;23.322;2023-04-12T05:42:09;93823.44;;;11.07
45976;BMP280;31696;42.668;23.322;2023-04-12T05:44:10;93818.00;;;10.93
45976;BMP280;31696;42.668;23.322;2023-04-12T05:46:10;93824.84;;;10.43
45976;BMP280;31696;42.668;23.322;2023-04-12T05:48:12;93808.00;;;10.80
45976;BMP280;31696;42.668;23.322;2023-04-12T05:50:14;93800.47;;;11.03
45976;BMP280;31696;42.668;23.322;2023-04-12T05:52:15;93814.69;;;10.74
45976;BMP280;31696;42.668;23.322;2023-04-12T05:54:16;93810.47;;;10.97
45976;BMP280;31696;42.668;23.322;2023-04-12T05:56:20;93814.25;;;10.68
45976;BMP280;31696;42.668;23.322;2023-04-12T05:58:21;93817.44;;;10.85
45976;BMP280;31696;42.668;23.322;2023-04-12T06:00:25;93821.78;;;10.73
45976;BMP280;31696;42.668;23.322;2023-04-12T06:02:25;93827.56;;;10.91
45976;BMP280;31696;42.668;23.322;2023-04-12T06:04:26;93825.63;;;10.82
45976;BMP280;31696;42.668;23.322;2023-04-12T06:06:27;93830.00;;;10.89
45976;BMP280;31696;42.668;23.322;2023-04-12T06:08:29;93832.97;;;10.66
45976;BMP280;31696;42.668;23.322;2023-04-12T06:10:30;93830.34;;;10.47
45976;BMP280;31696;42.668;23.322;2023-04-12T06:12:31;93842.31;;;10.79
45976;BMP280;31696;42.668;23.322;2023-04-12T06:14:31;93849.59;;;10.44
45976;BMP280;31696;42.668;23.322;2023-04-12T06:16:32;93835.97;;;10.72
45976;BMP280;31696;42.668;23.322;2023-04-12T06:18:32;93850.22;;;10.81
45976;BMP280;31696;42.668;23.322;2023-04-12T06:20:33;93795.22;;;10.55
45976;BMP280;31696;42.668;23.322;2023-04-12T06:22:34;93852.69;;;10.98
45976;BMP280;31696;42.668;23.322;2023-04-12T06:24:34;93846.69;;;11.05
45976;BMP280;31696;42.668;23.322;2023-04-12T06:26:35;93849.00;;;10.91
45976;BMP280;31696;42.668;23.322;2023-04-12T06:28:36;93847.91;;;10.75
45976;BMP280;31696;42.668;23.322;2023-04-12T06:30:36;93856.69;;;11.28
45976;BMP280;31696;42.668;23.322;2023-04-12T06:32:37;93846.84;;;11.55
45976;BMP280;31696;42.668;23.322;2023-04-12T06:34:37;93858.47;;;11.16
45976;BMP280;31696;42.668;23.322;2023-04-12T06:36:44;93845.59;;;11.27
45976;BMP280;31696;42.668;23.322;2023-04-12T06:38:46;93853.97;;;11.26
45976;BMP280;31696;42.668;23.322;2023-04-12T06:40:49;93850.00;;;11.15
45976;BMP280;31696;42.668;23.322;2023-04-12T06:42:50;93843.69;;;11.37
45976;BMP280;31696;42.668;23.322;2023-04-12T06:44:55;93847.78;;;11.02
45976;BMP280;31696;42.668;23.322;2023-04-12T06:46:56;93853.81;;;11.04
45976;BMP280;31696;42.668;23.322;2023-04-12T06:48:56;93850.00;;;11.25
45976;BMP280;31696;42.668;23.322;2023-04-12T06:50:57;93841.25;;;11.01
45976;BMP280;31696;42.668;23.322;2023-04-12T06:52:57;93828.97;;;11.80
45976;BMP280;31696;42.668;23.322;2023-04-12T06:54:58;93829.31;;;11.55
45976;BMP280;31696;42.668;23.322;2023-04-12T06:56:58;93836.97;;;11.34
45976;BMP280;31696;42.668;23.322;2023-04-12T06:59:00;93828.75;;;10.80
45976;BMP280;31696;42.668;23.322;2023-04-12T07:01:04;93829.63;;;11.21
45976;BMP280;31696;42.668;23.322;2023-04-12T07:03:05;93824.66;;;10.96
45976;BMP280;31696;42.668;23.322;2023-04-12T07:05:05;93823.41;;;10.69
45976;BMP280;31696;42.668;23.322;2023-04-12T07:07:06;93829.63;;;11.31
45976;BMP280;31696;42.668;23.322;2023-04-12T07:09:06;93819.69;;;12.17
45976;BMP280;31696;42.668;23.322;2023-04-12T07:11:07;93828.63;;;12.88
45976;BMP280;31696;42.668;23.322;2023-04-12T07:13:07;93831.53;;;13.36
45976;BMP280;31696;42.668;23.322;2023-04-12T07:15:07;93831.50;;;13.80
45976;BMP280;31696;42.668;23.322;2023-04-12T07:17:08;93828.50;;;13.63
45976;BMP280;31696;42.668;23.322;2023-04-12T07:19:08;93830.28;;;12.83
45976;BMP280;31696;42.668;23.322;2023-04-12T07:21:09;93831.59;;;12.72
45976;BMP280;31696;42.668;23.322;2023-04-12T07:23:13;93828.38;;;13.49
45976;BMP280;31696;42.668;23.322;2023-04-12T07:25:14;93826.41;;;13.71
45976;BMP280;31696;42.668;23.322;2023-04-12T07:27:14;93816.13;;;13.07
45976;BMP280;31696;42.668;23.322;2023-04-12T07:29:15;93828.38;;;12.84
45976;BMP280;31696;42.668;23.322;2023-04-12T07:31:16;93826.44;;;13.05
45976;BMP280;31696;42.668;23.322;2023-04-12T07:33:16;93812.69;;;13.38
45976;BMP280;31696;42.668;23.322;2023-04-12T07:35:17;93809.25;;;12.91
45976;BMP280;31696;42.668;23.322;2023-04-12T07:37:17;93811.03;;;13.09
45976;BMP280;31696;42.668;23.322;2023-04-12T07:39:18;93821.50;;;12.36
45976;BMP280;31696;42.668;23.322;2023-04-12T07:41:18;93816.41;;;12.17
45976;BMP280;31696;42.668;23.322;2023-04-12T07:43:18;93814.44;;;11.96
45976;BMP280;31696;42.668;23.322;2023-04-12T07:45:19;93810.31;;;11.43
45976;BMP280;31696;42.668;23.322;2023-04-12T07:47:19;93810.41;;;12.36
45976;BMP280;31696;42.668;23.322;2023-04-12T07:49:19;93812.81;;;12.74
45976;BMP280;31696;42.668;23.322;2023-04-12T07:51:20;93802.69;;;12.90
45976;BMP280;31696;42.668;23.322;2023-04-12T07:53:24;93812.00;;;13.25
45976;BMP280;31696;42.668;23.322;2023-04-12T07:55:25;93813.31;;;12.82
45976;BMP280;31696;42.668;23.322;2023-04-12T07:57:25;93800.16;;;12.59
45976;BMP280;31696;42.668;23.322;2023-04-12T07:59:26;93785.72;;;12.15
45976;BMP280;31696;42.668;23.322;2023-04-12T08:01:27;93790.78;;;13.19
45976;BMP280;31696;42.668;23.322;2023-04-12T08:03:27;93776.91;;;12.72
45976;BMP280;31696;42.668;23.322;2023-04-12T08:05:28;93786.88;;;13.42
45976;BMP280;31696;42.668;23.322;2023-04-12T08:07:28;93775.03;;;13.17
45976;BMP280;31696;42.668;23.322;2023-04-12T08:09:28;93770.03;;;13.10
45976;BMP280;31696;42.668;23.322;2023-04-12T08:11:29;93760.38;;;13.12
45976;BMP280;31696;42.668;23.322;2023-04-12T08:13:30;93777.81;;;12.56
45976;BMP280;31696;42.668;23.322;2023-04-12T08:15:30;93782.41;;;12.46
45976;BMP280;31696;42.668;23.322;2023-04-12T08:17:31;93774.34;;;12.63
45976;BMP280;31696;42.668;23.322;2023-04-12T08:19:31;93782.47;;;13.00
45976;BMP280;31696;42.668;23.322;2023-04-12T08:21:31;93793.03;;;12.38
45976;BMP280;31696;42.668;23.322;2023-04-12T08:23:32;93790.28;;;12.57
45976;BMP280;31696;42.668;23.322;2023-04-12T08:25:33;93771.13;;;13.40
45976;BMP280;31696;42.668;23.322;2023-04-12T08:27:33;93780.09;;;13.95
45976;BMP280;31696;42.668;23.322;2023-04-12T08:29:34;93776.47;;;14.00
45976;BMP280;31696;42.668;23.322;2023-04-12T08:31:34;93773.19;;;13.53
45976;BMP280;31696;42.668;23.322;2023-04-12T08:33:34;93769.41;;;14.25
45976;BMP280;31696;42.668;23.322;2023-04-12T08:35:35;93770.66;;;14.24
45976;BMP280;31696;42.668;23.322;2023-04-12T08:37:35;93765.91;;;14.09
45976;BMP280;31696;42.668;23.322;2023-04-12T08:39:35;93763.31;;;14.09
45976;BMP280;31696;42.668;23.322;2023-04-12T08:41:36;93771.47;;;13.46
45976;BMP280;31696;42.668;23.322;2023-04-12T08:43:38;93768.38;;;12.93
45976;BMP280;31696;42.668;23.322;2023-04-12T08:45:41;93768.03;;;13.43
45976;BMP280;31696;42.668;23.322;2023-04-12T08:47:42;93775.38;;;14.03
45976;BMP280;31696;42.668;23.322;2023-04-12T08:49:42;93768.03;;;14.73
45976;BMP280;31696;42.668;23.322;2023-04-12T08:51:43;93772.41;;;13.97
45976;BMP280;31696;42.668;23.322;2023-04-12T08:53:43;93772.81;;;14.28
45976;BMP280;31696;42.668;23.322;2023-04-12T08:55:44;93770.09;;;14.37
45976;BMP280;31696;42.668;23.322;2023-04-12T08:57:45;93775.97;;;14.75
45976;BMP280;31696;42.668;23.322;2023-04-12T08:59:47;93770.22;;;14.28
45976;BMP280;31696;42.668;23.322;2023-04-12T09:01:49;93772.16;;;14.27
45976;BMP280;31696;42.668;23.322;2023-04-12T09:03:50;93772.41;;;14.08
45976;BMP280;31696;42.668;23.322;2023-04-12T09:05:50;93783.84;;;13.80
45976;BMP280;31696;42.668;23.322;2023-04-12T09:07:50;93772.56;;;14.35
45976;BMP280;31696;42.668;23.322;2023-04-12T09:09:51;93764.66;;;14.22
45976;BMP280;31696;42.668;23.322;2023-04-12T09:11:51;93772.13;;;14.39
45976;BMP280;31696;42.668;23.322;2023-04-12T09:16:36;93759.34;;;14.08
45976;BMP280;31696;42.668;23.322;2023-04-12T09:18:46;93763.56;;;14.13
45976;BMP280;31696;42.668;23.322;2023-04-12T09:20:47;93755.59;;;14.11
45976;BMP280;31696;42.668;23.322;2023-04-12T09:22:47;93760.84;;;13.65
45976;BMP280;31696;42.668;23.322;2023-04-12T09:24:49;93760.72;;;13.86
45976;BMP280;31696;42.668;23.322;2023-04-12T09:27:02;93751.28;;;14.04
45976;BMP280;31696;42.668;23.322;2023-04-12T09:29:03;93760.50;;;13.82
45976;BMP280;31696;42.668;23.322;2023-04-12T09:31:03;93745.16;;;14.11
45976;BMP280;31696;42.668;23.322;2023-04-12T09:33:11;93734.97;;;13.80
45976;BMP280;31696;42.668;23.322;2023-04-12T09:35:12;93746.97;;;13.74
45976;BMP280;31696;42.668;23.322;2023-04-12T09:37:13;93732.22;;;13.44
45976;BMP280;31696;42.668;23.322;2023-04-12T09:39:13;93723.19;;;13.56
45976;BMP280;31696;42.668;23.322;2023-04-12T09:41:15;93738.88;;;13.23
45976;BMP280;31696;42.668;23.322;2023-04-12T09:43:16;93741.53;;;13.58
45976;BMP280;31696;42.668;23.322;2023-04-12T09:47:20;93725.19;;;13.34
45976;BMP280;31696;42.668;23.322;2023-04-12T09:49:34;93720.97;;;13.99
45976;BMP280;31696;42.668;23.322;2023-04-12T09:51:35;93713.41;;;13.68
45976;BMP280;31696;42.668;23.322;2023-04-12T09:53:36;93720.84;;;14.20
45976;BMP280;31696;42.668;23.322;2023-04-12T09:55:40;93716.50;;;14.36
45976;BMP280;31696;42.668;23.322;2023-04-12T09:57:41;93703.69;;;13.46
45976;BMP280;31696;42.668;23.322;2023-04-12T09:59:42;93701.16;;;13.24
45976;BMP280;31696;42.668;23.322;2023-04-12T10:01:43;93688.78;;;13.95
45976;BMP280;31696;42.668;23.322;2023-04-12T10:03:43;93697.50;;;13.99
45976;BMP280;31696;42.668;23.322;2023-04-12T10:05:44;93688.81;;;13.71
45976;BMP280;31696;42.668;23.322;2023-04-12T10:07:45;93698.22;;;13.76
45976;BMP280;31696;42.668;23.322;2023-04-12T10:09:45;93696.97;;;14.37
45976;BMP280;31696;42.668;23.322;2023-04-12T10:11:46;93697.97;;;14.07
45976;BMP280;31696;42.668;23.322;2023-04-12T10:13:48;93687.94;;;14.52
45976;BMP280;31696;42.668;23.322;2023-04-12T10:15:48;93693.38;;;14.19
45976;BMP280;31696;42.668;23.322;2023-04-12T10:17:50;93657.47;;;14.31
45976;BMP280;31696;42.668;23.322;2023-04-12T10:19:51;93672.31;;;14.66
45976;BMP280;31696;42.668;23.322;2023-04-12T10:21:52;93678.56;;;14.86
45976;BMP280;31696;42.668;23.322;2023-04-12T10:23:52;93679.31;;;14.49
45976;BMP280;31696;42.668;23.322;2023-04-12T10:25:53;93670.00;;;14.72
45976;BMP280;31696;42.668;23.322;2023-04-12T10:27:56;93678.56;;;14.35
45976;BMP280;31696;42.668;23.322;2023-04-12T10:30:17;93673.03;;;14.55
45976;BMP280;31696;42.668;23.322;2023-04-12T10:32:23;93673.19;;;14.70
45976;BMP280;31696;42.668;23.322;2023-04-12T10:34:30;93665.97;;;14.82
45976;BMP280;31696;42.668;23.322;2023-04-12T10:39:06;93660.19;;;14.84
45976;BMP280;31696;42.668;23.322;2023-04-12T10:41:10;93645.72;;;15.08
45976;BMP280;31696;42.668;23.322;2023-04-12T10:50:18;93669.22;;;15.22
45976;BMP280;31696;42.668;23.322;2023-04-12T11:03:07;93639.19;;;14.95
45976;BMP280;31696;42.668;23.322;2023-04-12T11:05:10;93628.06;;;14.95
45976;BMP280;31696;42.668;23.322;2023-04-12T11:07:39;93632.88;;;14.87
45976;BMP280;31696;42.668;23.322;2023-04-12T11:10:12;93655.28;;;14.90
45976;BMP280;31696;42.668;23.322;2023-04-12T11:12:14;93651.47;;;14.79
45976;BMP280;31696;42.668;23.322;2023-04-12T11:14:15;93636.09;;;14.60
45976;BMP280;31696;42.668;23.322;2023-04-12T11:16:15;93631.53;;;14.86
45976;BMP280;31696;42.668;23.322;2023-04-12T11:18:16;93639.19;;;14.31
45976;BMP280;31696;42.668;23.322;2023-04-12T11:20:16;93648.69;;;14.64
45976;BMP280;31696;42.668;23.322;2023-04-12T11:22:17;93648.06;;;14.77
45976;BMP280;31696;42.668;23.322;2023-04-12T11:24:18;93649.13;;;14.85
45976;BMP280;31696;42.668;23.322;2023-04-12T11:26:19;93633.56;;;14.87
45976;BMP280;31696;42.668;23.322;2023-04-12T11:28:21;93637.75;;;15.06
45976;BMP280;31696;42.668;23.322;2023-04-12T11:30:23;93636.69;;;15.11
45976;BMP280;31696;42.668;23.322;2023-04-12T11:32:27;93641.47;;;14.76
45976;BMP280;31696;42.668;23.322;2023-04-12T11:34:32;93648.00;;;14.88
45976;BMP280;31696;42.668;23.322;2023-04-12T11:36:33;93638.94;;;14.64
45976;BMP280;31696;42.668;23.322;2023-04-12T11:38:33;93646.50;;;14.72
45976;BMP280;31696;42.668;23.322;2023-04-12T11:40:34;93640.75;;;14.62
45976;BMP280;31696;42.668;23.322;2023-04-12T11:42:34;93635.22;;;14.94
45976;BMP280;31696;42.668;23.322;2023-04-12T11:44:35;93647.22;;;14.86
45976;BMP280;31696;42.668;23.322;2023-04-12T11:46:35;93636.53;;;14.68
45976;BMP280;31696;42.668;23.322;2023-04-12T11:48:36;93639.84;;;14.69
45976;BMP280;31696;42.668;23.322;2023-04-12T11:50:37;93640.13;;;14.49
45976;BMP280;31696;42.668;23.322;2023-04-12T11:52:39;93638.88;;;14.50
45976;BMP280;31696;42.668;23.322;2023-04-12T11:54:40;93638.03;;;14.60
45976;BMP280;31696;42.668;23.322;2023-04-12T11:56:41;93632.94;;;14.75
45976;BMP280;31696;42.668;23.322;2023-04-12T11:58:41;93637.41;;;14.86
45976;BMP280;31696;42.668;23.322;2023-04-12T12:00:45;93631.56;;;15.13
45976;BMP280;31696;42.668;23.322;2023-04-12T12:02:45;93638.84;;;15.15
45976;BMP280;31696;42.668;23.322;2023-04-12T12:04:46;93631.56;;;15.13